createdAt,value
2022-12-26T00:00:19.275Z,90.06
2022-12-26T00:02:45.766Z,90.74
2022-12-26T00:05:12.328Z,90.84
2022-12-26T00:07:38.673Z,90.98
2022-12-26T00:10:05.528Z,91.58
2022-12-26T00:12:31.905Z,92.35
2022-12-26T00:14:58.246Z,92.04
2022-12-26T00:17:24.584Z,91.56
2022-12-26T00:19:50.927Z,90.85
2022-12-26T00:22:18.250Z,90.07
2022-12-26T00:24:44.588Z,89.00
2022-12-26T00:27:10.915Z,87.89
2022-12-26T00:29:37.252Z,87.00
2022-12-26T00:32:03.846Z,86.34
2022-12-26T00:34:30.206Z,85.42
2022-12-26T00:36:56.544Z,84.78
2022-12-26T00:39:22.855Z,84.28
2022-12-26T00:41:49.199Z,84.49
2022-12-26T00:44:15.539Z,84.73
2022-12-26T00:46:42.021Z,84.58
2022-12-26T00:49:08.416Z,84.56
2022-12-26T00:51:34.740Z,84.80
2022-12-26T00:54:01.083Z,85.00
2022-12-26T00:56:27.436Z,84.96
2022-12-26T00:58:53.819Z,84.69
2022-12-26T01:01:22.888Z,84.17
2022-12-26T01:03:50.528Z,84.09
2022-12-26T01:06:17.376Z,83.71
2022-12-26T01:08:44.428Z,85.22
2022-12-26T01:11:13.607Z,85.87
2022-12-26T01:13:39.938Z,86.21
2022-12-26T01:16:07.342Z,86.38
2022-12-26T01:18:34.339Z,86.91
2022-12-26T01:21:10.355Z,86.80
2022-12-26T01:23:36.748Z,86.59
2022-12-26T01:26:16.652Z,86.97
2022-12-26T01:28:47.673Z,87.39
2022-12-26T01:31:14.081Z,88.55
2022-12-26T01:33:40.500Z,87.60
2022-12-26T01:36:06.962Z,87.13
2022-12-26T01:38:33.296Z,87.41
2022-12-26T01:41:29.838Z,87.57
2022-12-26T01:44:02.839Z,87.68
2022-12-26T01:46:39.662Z,88.89
2022-12-26T01:49:15.167Z,89.24
2022-12-26T01:51:46.352Z,88.87
2022-12-26T01:54:38.310Z,88.48
2022-12-26T01:57:04.030Z,88.40
2022-12-26T01:59:35.359Z,87.77
2022-12-26T02:02:01.985Z,87.67
2022-12-26T02:04:59.245Z,87.41
2022-12-26T02:07:26.450Z,86.86
2022-12-26T02:09:53.195Z,86.81
2022-12-26T02:12:40.887Z,87.12
2022-12-26T02:15:13.331Z,86.56
2022-12-26T02:17:41.247Z,86.12
2022-12-26T02:20:20.742Z,86.05
2022-12-26T02:23:01.436Z,86.12
2022-12-26T02:25:30.567Z,85.61
2022-12-26T02:28:32.264Z,85.13
2022-12-26T02:31:21.888Z,84.29
2022-12-26T02:34:01.628Z,85.43
2022-12-26T02:36:50.065Z,85.98
2022-12-26T02:39:43.609Z,86.08
2022-12-26T02:42:38.198Z,87.48
2022-12-26T02:45:43.633Z,88.41
2022-12-26T02:48:13.521Z,88.66
2022-12-26T02:51:36.745Z,88.64
2022-12-26T02:54:27.881Z,89.12
2022-12-26T02:57:24.423Z,88.67
2022-12-26T03:00:24.094Z,87.85
2022-12-26T03:03:17.177Z,87.40
2022-12-26T03:06:11.268Z,87.68
2022-12-26T03:09:03.354Z,88.04
2022-12-26T03:11:58.312Z,87.17
2022-12-26T03:14:33.105Z,87.33
2022-12-26T03:17:21.313Z,86.99
2022-12-26T03:20:17.942Z,86.75
2022-12-26T03:23:18.615Z,85.83
2022-12-26T03:26:09.656Z,86.33
2022-12-26T03:28:36.072Z,85.87
2022-12-26T03:31:07.795Z,86.03
2022-12-26T03:33:57.801Z,86.77
2022-12-26T03:36:35.160Z,86.94
2022-12-26T03:39:48.433Z,87.33
2022-12-26T03:43:01.109Z,87.71
2022-12-26T03:45:58.352Z,87.08
2022-12-26T03:48:53.957Z,87.24
2022-12-26T03:51:49.991Z,87.61
2022-12-26T03:54:43.047Z,87.31
2022-12-26T03:57:36.264Z,87.59
2022-12-26T04:00:28.420Z,88.16
2022-12-26T04:03:19.054Z,88.45
2022-12-26T04:06:08.124Z,88.18
2022-12-26T04:09:09.829Z,87.98
2022-12-26T04:11:57.956Z,87.86
2022-12-26T04:14:55.436Z,87.23
2022-12-26T04:18:15.429Z,86.37
2022-12-26T04:20:47.657Z,85.51
2022-12-26T04:23:44.882Z,84.54
2022-12-26T04:26:39.299Z,85.11
2022-12-26T04:29:24.524Z,84.86
2022-12-26T04:32:29.649Z,85.99
2022-12-26T04:35:36.822Z,86.35
2022-12-26T04:38:24.382Z,86.50
2022-12-26T04:41:16.885Z,86.41
2022-12-26T04:44:03.210Z,86.76
2022-12-26T04:46:31.991Z,86.68
2022-12-26T04:49:18.600Z,86.43
2022-12-26T04:51:44.991Z,86.19
2022-12-26T04:54:11.324Z,86.01
2022-12-26T04:56:37.770Z,85.91
2022-12-26T04:59:04.182Z,85.96
2022-12-26T05:01:49.411Z,85.69
2022-12-26T05:04:36.660Z,85.87
2022-12-26T05:07:24.012Z,85.29
2022-12-26T05:09:53.284Z,85.96
2022-12-26T05:12:20.546Z,85.95
2022-12-26T05:14:46.964Z,86.27
2022-12-26T05:17:32.543Z,86.08
2022-12-26T05:20:34.638Z,85.66
2022-12-26T05:23:21.107Z,85.49
2022-12-26T05:26:07.432Z,85.16
2022-12-26T05:28:43.069Z,84.77
2022-12-26T05:31:15.563Z,85.17
2022-12-26T05:34:01.212Z,85.02
2022-12-26T05:36:34.697Z,84.43
2022-12-26T05:39:01.805Z,83.98
2022-12-26T05:41:28.171Z,84.01
2022-12-26T05:43:54.564Z,83.83
2022-12-26T05:46:20.956Z,83.58
2022-12-26T05:48:47.314Z,83.28
2022-12-26T05:51:13.942Z,83.61
2022-12-26T05:53:40.454Z,83.76
2022-12-26T05:56:12.029Z,83.98
2022-12-26T05:58:39.285Z,83.67
2022-12-26T06:01:05.824Z,83.68
2022-12-26T06:03:32.904Z,84.32
2022-12-26T06:05:59.413Z,84.13
2022-12-26T06:08:25.748Z,83.91
2022-12-26T06:10:52.076Z,84.03
2022-12-26T06:13:18.411Z,83.74
2022-12-26T06:15:44.725Z,83.68
2022-12-26T06:18:11.058Z,83.40
2022-12-26T06:20:40.533Z,83.32
2022-12-26T06:23:07.001Z,83.44
2022-12-26T06:25:33.339Z,83.62
2022-12-26T06:27:59.700Z,83.64
2022-12-26T06:30:26.071Z,83.66
2022-12-26T06:32:52.381Z,83.68
2022-12-26T06:35:18.715Z,83.59
2022-12-26T06:37:45.044Z,83.66
2022-12-26T06:40:11.413Z,83.22
2022-12-26T06:42:37.739Z,83.21
2022-12-26T06:45:04.437Z,82.53
2022-12-26T06:47:30.797Z,81.73
2022-12-26T06:49:57.155Z,81.82
2022-12-26T06:52:23.500Z,82.30
2022-12-26T06:54:49.809Z,82.17
2022-12-26T06:57:16.179Z,81.50
2022-12-26T06:59:42.640Z,81.19
2022-12-26T07:02:11.007Z,81.51
2022-12-26T07:04:37.418Z,80.93
2022-12-26T07:07:03.828Z,81.26
2022-12-26T07:09:33.800Z,81.45
2022-12-26T07:12:01.555Z,82.24
2022-12-26T07:14:27.900Z,82.16
2022-12-26T07:16:54.552Z,81.82
2022-12-26T07:19:20.956Z,81.80
2022-12-26T07:21:47.276Z,82.01
2022-12-26T07:24:19.210Z,81.73
2022-12-26T07:26:46.670Z,81.82
2022-12-26T07:29:13.984Z,81.75
2022-12-26T07:31:41.180Z,81.29
2022-12-26T07:34:08.501Z,81.55
2022-12-26T07:36:34.913Z,81.42
2022-12-26T07:39:01.244Z,81.31
2022-12-26T07:41:47.526Z,81.60
2022-12-26T07:44:13.863Z,81.56
2022-12-26T07:46:40.242Z,81.60
2022-12-26T07:49:07.564Z,80.97
2022-12-26T07:51:34.062Z,80.97
2022-12-26T07:54:03.162Z,80.86
2022-12-26T07:56:34.179Z,80.33
2022-12-26T07:59:00.548Z,80.49
2022-12-26T08:01:28.042Z,80.31
2022-12-26T08:03:54.623Z,79.13
2022-12-26T08:06:21.269Z,78.45
2022-12-26T08:08:51.041Z,77.05
2022-12-26T08:11:21.317Z,76.74
2022-12-26T08:13:47.661Z,76.96
2022-12-26T08:16:15.086Z,75.95
2022-12-26T08:18:42.333Z,76.13
2022-12-26T08:21:09.029Z,75.82
2022-12-26T08:23:35.417Z,76.03
2022-12-26T08:26:09.567Z,75.57
2022-12-26T08:28:36.324Z,75.37
2022-12-26T08:31:09.822Z,75.79
2022-12-26T08:33:36.740Z,76.22
2022-12-26T08:36:08.605Z,76.18
2022-12-26T08:38:35.423Z,76.88
2022-12-26T08:41:02.259Z,77.19
2022-12-26T08:43:53.215Z,75.89
2022-12-26T08:46:16.388Z,75.25
2022-12-26T08:48:42.853Z,74.93
2022-12-26T08:51:15.877Z,76.77
2022-12-26T08:53:42.548Z,78.06
2022-12-26T08:56:13.424Z,78.47
2022-12-26T08:58:39.804Z,78.24
2022-12-26T09:01:12.768Z,78.21
2022-12-26T09:03:40.051Z,78.30
2022-12-26T09:06:06.870Z,78.59
2022-12-26T09:08:34.827Z,77.99
2022-12-26T09:11:06.414Z,78.13
2022-12-26T09:13:33.555Z,78.18
2022-12-26T09:16:08.008Z,77.80
2022-12-26T09:18:35.109Z,77.90
2022-12-26T09:21:06.917Z,77.60
2022-12-26T09:23:35.063Z,77.56
2022-12-26T09:26:06.904Z,76.37
2022-12-26T09:28:34.507Z,76.24
2022-12-26T09:31:10.012Z,76.15
2022-12-26T09:33:37.622Z,75.80
2022-12-26T09:36:14.793Z,75.84
2022-12-26T09:38:42.692Z,75.66
2022-12-26T09:41:30.959Z,75.74
2022-12-26T09:44:25.566Z,74.60
2022-12-26T09:47:25.216Z,74.07
2022-12-26T09:50:18.658Z,74.11
2022-12-26T09:53:05.659Z,73.69
2022-12-26T09:55:42.456Z,74.02
2022-12-26T09:58:27.881Z,73.66
2022-12-26T10:01:05.585Z,73.91
2022-12-26T10:03:38.492Z,74.57
2022-12-26T10:06:15.624Z,75.80
2022-12-26T10:08:52.490Z,77.36
2022-12-26T10:11:55.263Z,78.53
2022-12-26T10:14:35.800Z,78.29
2022-12-26T10:17:11.324Z,78.65
2022-12-26T10:19:48.650Z,78.90
2022-12-26T10:22:31.398Z,78.73
2022-12-26T10:25:01.275Z,79.07
2022-12-26T10:27:31.818Z,79.08
2022-12-26T10:30:03.452Z,79.35
2022-12-26T10:32:38.235Z,78.64
2022-12-26T10:35:23.480Z,78.66
2022-12-26T10:37:52.936Z,79.07
2022-12-26T10:40:26.991Z,79.20
2022-12-26T10:42:59.434Z,79.71
2022-12-26T10:45:37.844Z,79.97
2022-12-26T10:48:04.750Z,80.03
2022-12-26T10:50:33.155Z,80.48
2022-12-26T10:53:01.177Z,82.00
2022-12-26T10:55:35.033Z,82.60
2022-12-26T10:58:13.281Z,84.30
2022-12-26T11:00:39.595Z,85.55
2022-12-26T11:03:07.431Z,86.17
2022-12-26T11:06:06.361Z,86.53
2022-12-26T11:08:43.016Z,85.95
2022-12-26T11:11:14.847Z,86.04
2022-12-26T11:13:52.628Z,86.56
2022-12-26T11:16:31.511Z,86.40
2022-12-26T11:18:58.637Z,86.89
2022-12-26T11:21:28.226Z,85.90
2022-12-26T11:24:06.819Z,85.91
2022-12-26T11:26:33.184Z,85.20
2022-12-26T11:29:14.969Z,85.29
2022-12-26T11:31:43.840Z,85.59
2022-12-26T11:34:17.194Z,85.37
2022-12-26T11:36:50.812Z,84.86
2022-12-26T11:39:30.387Z,84.62
2022-12-26T11:41:57.640Z,84.34
2022-12-26T11:44:28.520Z,84.35
2022-12-26T11:47:16.388Z,84.26
2022-12-26T11:49:49.464Z,84.56
2022-12-26T11:52:38.554Z,84.75
2022-12-26T11:55:23.319Z,84.56
2022-12-26T11:58:02.086Z,84.42
2022-12-26T12:00:29.673Z,84.82
2022-12-26T12:02:56.043Z,85.23
2022-12-26T12:05:28.226Z,85.82
2022-12-26T12:08:16.449Z,85.65
2022-12-26T12:11:17.249Z,85.35
2022-12-26T12:13:57.795Z,86.22
2022-12-26T12:16:58.115Z,85.49
2022-12-26T12:19:33.282Z,85.83
2022-12-26T12:22:37.339Z,85.90
2022-12-26T12:25:35.580Z,85.32
2022-12-26T12:28:17.517Z,85.40
2022-12-26T12:30:56.896Z,85.49
2022-12-26T12:33:46.146Z,84.82
2022-12-26T12:36:18.581Z,84.00
2022-12-26T12:39:10.658Z,84.34
2022-12-26T12:41:48.855Z,84.36
2022-12-26T12:44:30.200Z,84.57
2022-12-26T12:47:20.670Z,84.25
2022-12-26T12:49:52.914Z,84.11
2022-12-26T12:52:41.905Z,84.12
2022-12-26T12:55:20.242Z,85.33
2022-12-26T12:57:50.996Z,85.03
2022-12-26T13:00:21.716Z,84.88
2022-12-26T13:03:11.050Z,84.97
2022-12-26T13:05:57.683Z,84.51
2022-12-26T13:08:46.968Z,84.92
2022-12-26T13:11:45.680Z,85.26
2022-12-26T13:14:22.068Z,85.68
2022-12-26T13:16:55.181Z,85.02
2022-12-26T13:19:28.823Z,85.94
2022-12-26T13:22:02.200Z,86.13
2022-12-26T13:24:48.752Z,84.79
2022-12-26T13:27:21.349Z,85.40
2022-12-26T13:29:48.847Z,84.60
2022-12-26T13:32:17.396Z,84.80
2022-12-26T13:34:45.819Z,85.05
2022-12-26T13:37:39.308Z,84.48
2022-12-26T13:40:21.494Z,84.57
2022-12-26T13:43:30.427Z,85.68
2022-12-26T13:45:57.821Z,85.93
2022-12-26T13:48:27.222Z,86.34
2022-12-26T13:50:56.690Z,85.80
2022-12-26T13:53:26.176Z,85.36
2022-12-26T13:56:02.684Z,85.68
2022-12-26T13:58:31.810Z,86.07
2022-12-26T14:01:25.838Z,86.56
2022-12-26T14:04:26.383Z,86.66
2022-12-26T14:07:24.054Z,86.22
2022-12-26T14:10:16.886Z,86.12
2022-12-26T14:13:07.744Z,86.34
2022-12-26T14:15:55.423Z,86.72
2022-12-26T14:18:46.520Z,86.75
2022-12-26T14:21:29.823Z,85.93
2022-12-26T14:24:26.922Z,86.55
2022-12-26T14:27:27.351Z,87.47
2022-12-26T14:30:06.782Z,87.24
2022-12-26T14:32:43.260Z,87.76
2022-12-26T14:35:34.153Z,87.93
2022-12-26T14:38:06.349Z,87.70
2022-12-26T14:40:36.172Z,87.51
2022-12-26T14:43:10.440Z,86.72
2022-12-26T14:45:36.766Z,86.76
2022-12-26T14:48:15.045Z,87.54
2022-12-26T14:50:49.337Z,88.40
2022-12-26T14:53:24.943Z,88.44
2022-12-26T14:55:54.040Z,88.01
2022-12-26T14:58:52.167Z,88.36
2022-12-26T15:01:21.634Z,88.08
2022-12-26T15:03:58.817Z,87.71
2022-12-26T15:06:25.083Z,86.96
2022-12-26T15:09:24.457Z,85.42
2022-12-26T15:12:04.643Z,85.18
2022-12-26T15:14:55.149Z,85.42
2022-12-26T15:17:33.738Z,86.06
2022-12-26T15:20:42.290Z,86.08
2022-12-26T15:23:26.884Z,85.78
2022-12-26T15:26:11.979Z,85.11
2022-12-26T15:29:22.635Z,85.50
2022-12-26T15:32:09.621Z,85.23
2022-12-26T15:35:03.659Z,85.63
2022-12-26T15:37:51.784Z,86.33
2022-12-26T15:40:28.613Z,86.38
2022-12-26T15:43:31.168Z,86.66
2022-12-26T15:46:05.582Z,86.92
2022-12-26T15:48:50.499Z,87.03
2022-12-26T15:51:28.981Z,87.52
2022-12-26T15:54:22.752Z,88.04
2022-12-26T15:57:15.960Z,87.61
2022-12-26T15:59:57.570Z,87.92
2022-12-26T16:02:27.025Z,87.01
2022-12-26T16:05:01.171Z,86.96
2022-12-26T16:07:49.345Z,86.34
2022-12-26T16:10:28.221Z,86.69
2022-12-26T16:13:22.501Z,87.26
2022-12-26T16:15:56.810Z,86.91
2022-12-26T16:18:29.102Z,86.25
2022-12-26T16:21:17.348Z,85.37
2022-12-26T16:23:45.578Z,84.82
2022-12-26T16:26:29.049Z,84.45
2022-12-26T16:28:57.493Z,83.42
2022-12-26T16:31:26.391Z,82.49
2022-12-26T16:33:56.987Z,82.44
2022-12-26T16:36:26.854Z,82.91
2022-12-26T16:38:54.085Z,83.42
2022-12-26T16:41:27.898Z,84.38
2022-12-26T16:43:56.131Z,84.94
2022-12-26T16:46:28.714Z,84.24
2022-12-26T16:49:01.124Z,85.04
2022-12-26T16:51:54.795Z,85.45
2022-12-26T16:54:21.107Z,85.29
2022-12-26T16:56:57.227Z,84.22
2022-12-26T16:59:28.748Z,83.59
2022-12-26T17:01:57.991Z,84.25
2022-12-26T17:04:27.182Z,85.60
2022-12-26T17:06:57.521Z,85.15
2022-12-26T17:09:26.615Z,85.25
2022-12-26T17:11:58.959Z,86.00
2022-12-26T17:14:31.032Z,85.98
2022-12-26T17:17:03.835Z,86.29
2022-12-26T17:19:35.963Z,86.42
2022-12-26T17:22:20.688Z,86.55
2022-12-26T17:24:51.606Z,86.10
2022-12-26T17:27:24.881Z,86.66
2022-12-26T17:30:00.452Z,86.79
2022-12-26T17:32:36.390Z,85.79
2022-12-26T17:35:06.518Z,85.34
2022-12-26T17:37:33.792Z,85.29
2022-12-26T17:40:19.693Z,85.12
2022-12-26T17:42:52.790Z,84.52
2022-12-26T17:45:25.229Z,83.88
2022-12-26T17:47:53.751Z,83.31
2022-12-26T17:50:21.654Z,83.23
2022-12-26T17:52:48.413Z,83.50
2022-12-26T17:55:20.956Z,82.87
2022-12-26T17:57:48.679Z,82.45
2022-12-26T18:00:18.362Z,82.39
2022-12-26T18:02:44.863Z,82.59
2022-12-26T18:05:11.779Z,82.11
2022-12-26T18:07:38.199Z,81.52
2022-12-26T18:10:05.134Z,81.64
2022-12-26T18:12:31.456Z,80.80
2022-12-26T18:15:02.205Z,80.33
2022-12-26T18:17:31.909Z,79.78
2022-12-26T18:19:58.885Z,79.52
2022-12-26T18:22:25.272Z,78.69
2022-12-26T18:24:51.673Z,78.28
2022-12-26T18:27:27.235Z,77.95
2022-12-26T18:29:53.622Z,77.38
2022-12-26T18:32:24.560Z,77.35
2022-12-26T18:34:51.646Z,76.87
2022-12-26T18:37:18.688Z,76.34
2022-12-26T18:39:45.293Z,75.42
2022-12-26T18:42:13.783Z,76.08
2022-12-26T18:44:41.023Z,75.40
2022-12-26T18:47:09.469Z,75.23
2022-12-26T18:49:35.812Z,74.86
2022-12-26T18:52:02.188Z,74.83
2022-12-26T18:54:28.519Z,75.14
2022-12-26T18:56:54.898Z,75.12
2022-12-26T18:59:21.248Z,74.59
2022-12-26T19:01:47.727Z,74.47
2022-12-26T19:04:17.540Z,73.98
2022-12-26T19:06:43.885Z,74.15
2022-12-26T19:09:14.229Z,73.89
2022-12-26T19:11:42.066Z,73.32
2022-12-26T19:14:16.186Z,73.87
2022-12-26T19:16:42.679Z,73.33
2022-12-26T19:19:09.171Z,73.48
2022-12-26T19:21:35.549Z,73.57
2022-12-26T19:24:01.943Z,74.04
2022-12-26T19:26:28.368Z,74.04
2022-12-26T19:28:55.822Z,74.18
2022-12-26T19:31:23.670Z,75.42
2022-12-26T19:33:50.123Z,75.67
2022-12-26T19:36:17.347Z,74.92
2022-12-26T19:38:43.810Z,75.81
2022-12-26T19:41:12.796Z,76.64
2022-12-26T19:43:40.117Z,77.12
2022-12-26T19:46:11.184Z,76.96
2022-12-26T19:48:38.719Z,76.96
2022-12-26T19:51:08.333Z,76.36
2022-12-26T19:53:36.181Z,76.93
2022-12-26T19:56:10.900Z,77.11
2022-12-26T19:58:37.920Z,77.15
2022-12-26T20:01:16.285Z,77.80
2022-12-26T20:03:44.417Z,78.67
2022-12-26T20:06:14.984Z,79.14
2022-12-26T20:08:42.556Z,80.12
2022-12-26T20:11:14.883Z,80.79
2022-12-26T20:13:42.988Z,80.88
2022-12-26T20:16:45.995Z,81.29
2022-12-26T20:19:01.156Z,82.30
2022-12-26T20:21:27.816Z,82.62
2022-12-26T20:23:54.179Z,83.57
2022-12-26T20:26:23.239Z,84.15
2022-12-26T20:28:50.681Z,84.29
2022-12-26T20:31:21.119Z,84.62
2022-12-26T20:33:49.441Z,85.08
2022-12-26T20:36:19.919Z,85.73
2022-12-26T20:38:46.548Z,86.74
2022-12-26T20:41:13.215Z,86.89
2022-12-26T20:43:40.521Z,86.67
2022-12-26T20:46:16.933Z,86.45
2022-12-26T20:48:44.127Z,85.76
2022-12-26T20:51:13.795Z,85.74
2022-12-26T20:53:41.361Z,84.69
2022-12-26T20:56:08.309Z,84.33
2022-12-26T20:58:35.614Z,84.30
2022-12-26T21:01:07.249Z,84.61
2022-12-26T21:03:35.123Z,85.08
2022-12-26T21:06:13.225Z,84.67
2022-12-26T21:08:41.481Z,84.32
2022-12-26T21:11:16.253Z,84.89
2022-12-26T21:13:44.365Z,84.91
2022-12-26T21:16:16.159Z,85.24
2022-12-26T21:18:42.546Z,84.91
2022-12-26T21:21:15.228Z,85.06
2022-12-26T21:23:42.069Z,85.14
2022-12-26T21:26:09.338Z,85.10
2022-12-26T21:28:36.365Z,85.29
2022-12-26T21:31:03.424Z,85.14
2022-12-26T21:33:30.837Z,84.84
2022-12-26T21:35:57.297Z,85.82
2022-12-26T21:38:27.294Z,85.51
2022-12-26T21:40:53.621Z,85.34
2022-12-26T21:43:19.957Z,84.93
2022-12-26T21:45:46.287Z,84.29
2022-12-26T21:48:12.624Z,83.94
2022-12-26T21:50:44.013Z,83.99
2022-12-26T21:53:10.874Z,84.25
2022-12-26T21:55:38.561Z,84.46
2022-12-26T21:58:07.351Z,84.98
2022-12-26T22:00:35.260Z,85.36
2022-12-26T22:03:21.548Z,85.30
2022-12-26T22:05:48.222Z,85.63
2022-12-26T22:08:15.077Z,86.09
2022-12-26T22:11:04.993Z,86.01
2022-12-26T22:13:39.544Z,85.69
2022-12-26T22:16:08.522Z,86.57
2022-12-26T22:18:43.247Z,87.00
2022-12-26T22:21:13.571Z,87.40
2022-12-26T22:23:40.764Z,87.00
2022-12-26T22:26:08.493Z,87.15
2022-12-26T22:28:34.921Z,87.27
2022-12-26T22:31:01.626Z,86.71
2022-12-26T22:33:28.844Z,86.95
2022-12-26T22:35:55.777Z,86.66
2022-12-26T22:38:22.272Z,86.70
2022-12-26T22:40:59.299Z,86.22
2022-12-26T22:43:26.568Z,86.23
2022-12-26T22:45:53.513Z,86.13
2022-12-26T22:48:20.313Z,85.93
2022-12-26T22:50:50.689Z,85.62
2022-12-26T22:53:17.039Z,85.64
2022-12-26T22:55:57.582Z,84.55
2022-12-26T22:58:24.016Z,84.66
2022-12-26T23:00:50.383Z,85.22
2022-12-26T23:03:16.859Z,84.49
2022-12-26T23:05:43.774Z,84.03
2022-12-26T23:08:17.266Z,84.05
2022-12-26T23:10:44.401Z,84.05
2022-12-26T23:13:12.590Z,84.00
2022-12-26T23:15:50.062Z,84.25
2022-12-26T23:18:51.140Z,84.69
2022-12-26T23:21:43.715Z,84.95
2022-12-26T23:24:18.128Z,85.21
2022-12-26T23:27:20.833Z,85.85
2022-12-26T23:30:06.658Z,85.71
2022-12-26T23:32:34.345Z,84.71
2022-12-26T23:35:00.921Z,84.97
2022-12-26T23:37:27.252Z,85.03
2022-12-26T23:39:53.583Z,84.72
2022-12-26T23:42:19.908Z,84.63
2022-12-26T23:44:46.283Z,84.31
2022-12-26T23:47:12.624Z,84.76
2022-12-26T23:49:39.059Z,84.43
2022-12-26T23:52:05.467Z,84.38
2022-12-26T23:54:31.824Z,83.85
2022-12-26T23:56:58.520Z,82.82
2022-12-26T23:59:24.995Z,83.31
